sensor_id;sensor_type;location;lat;lon;timestamp;P1;durP1;ratioP1;P2;durP2;ratioP2
11763;SDS011;5939;56.522;14.950;2022-11-15T00:00:05;9.67;;;6.93;;
11763;SDS011;5939;56.522;14.950;2022-11-15T00:02:31;8.67;;;7.10;;
11763;SDS011;5939;56.522;14.950;2022-11-15T00:04:57;9.63;;;7.03;;
11763;SDS011;5939;56.522;14.950;2022-11-15T00:07:22;8.60;;;6.77;;
11763;SDS011;5939;56.522;14.950;2022-11-15T00:09:48;9.77;;;7.00;;
11763;SDS011;5939;56.522;14.950;2022-11-15T00:12:14;9.90;;;7.60;;
11763;SDS011;5939;56.522;14.950;2022-11-15T00:14:39;9.47;;;6.90;;
11763;SDS011;5939;56.522;14.950;2022-11-15T00:17:05;8.40;;;7.03;;
11763;SDS011;5939;56.522;14.950;2022-11-15T00:19:31;9.30;;;6.40;;
11763;SDS011;5939;56.522;14.950;2022-11-15T00:21:56;8.93;;;7.20;;
11763;SDS011;5939;56.522;14.950;2022-11-15T00:24:22;8.70;;;6.70;;
11763;SDS011;5939;56.522;14.950;2022-11-15T00:26:47;9.50;;;6.90;;
11763;SDS011;5939;56.522;14.950;2022-11-15T00:29:13;9.43;;;6.70;;
11763;SDS011;5939;56.522;14.950;2022-11-15T00:31:39;9.47;;;6.90;;
11763;SDS011;5939;56.522;14.950;2022-11-15T00:34:04;9.27;;;6.83;;
11763;SDS011;5939;56.522;14.950;2022-11-15T00:36:32;9.17;;;7.00;;
11763;SDS011;5939;56.522;14.950;2022-11-15T00:38:59;13.17;;;7.20;;
11763;SDS011;5939;56.522;14.950;2022-11-15T00:41:25;9.03;;;6.80;;
11763;SDS011;5939;56.522;14.950;2022-11-15T00:43:51;8.33;;;6.80;;
11763;SDS011;5939;56.522;14.950;2022-11-15T00:46:16;10.53;;;6.67;;
11763;SDS011;5939;56.522;14.950;2022-11-15T00:48:42;8.33;;;6.60;;
11763;SDS011;5939;56.522;14.950;2022-11-15T00:51:07;8.43;;;6.63;;
11763;SDS011;5939;56.522;14.950;2022-11-15T00:53:33;8.23;;;6.33;;
11763;SDS011;5939;56.522;14.950;2022-11-15T00:55:59;8.63;;;6.50;;
11763;SDS011;5939;56.522;14.950;2022-11-15T00:58:25;10.70;;;6.97;;
11763;SDS011;5939;56.522;14.950;2022-11-15T01:00:50;8.97;;;6.93;;
11763;SDS011;5939;56.522;14.950;2022-11-15T01:03:16;8.17;;;6.67;;
11763;SDS011;5939;56.522;14.950;2022-11-15T01:05:42;8.23;;;6.77;;
11763;SDS011;5939;56.522;14.950;2022-11-15T01:08:11;7.50;;;6.70;;
11763;SDS011;5939;56.522;14.950;2022-11-15T01:10:38;8.43;;;6.37;;
11763;SDS011;5939;56.522;14.950;2022-11-15T01:13:04;9.27;;;7.27;;
11763;SDS011;5939;56.522;14.950;2022-11-15T01:15:29;8.77;;;6.23;;
11763;SDS011;5939;56.522;14.950;2022-11-15T01:17:55;8.27;;;6.60;;
11763;SDS011;5939;56.522;14.950;2022-11-15T01:20:20;8.67;;;6.83;;
11763;SDS011;5939;56.522;14.950;2022-11-15T01:22:46;7.87;;;6.70;;
11763;SDS011;5939;56.522;14.950;2022-11-15T01:25:12;8.80;;;6.33;;
11763;SDS011;5939;56.522;14.950;2022-11-15T01:27:37;9.43;;;7.20;;
11763;SDS011;5939;56.522;14.950;2022-11-15T01:30:03;9.60;;;6.80;;
11763;SDS011;5939;56.522;14.950;2022-11-15T01:32:29;8.03;;;6.10;;
11763;SDS011;5939;56.522;14.950;2022-11-15T01:34:55;9.00;;;6.33;;
11763;SDS011;5939;56.522;14.950;2022-11-15T01:37:20;10.67;;;6.80;;
11763;SDS011;5939;56.522;14.950;2022-11-15T01:39:46;9.43;;;6.80;;
11763;SDS011;5939;56.522;14.950;2022-11-15T01:42:12;9.47;;;7.00;;
11763;SDS011;5939;56.522;14.950;2022-11-15T01:44:51;8.23;;;6.53;;
11763;SDS011;5939;56.522;14.950;2022-11-15T01:47:27;8.77;;;6.93;;
11763;SDS011;5939;56.522;14.950;2022-11-15T01:52:34;8.20;;;6.67;;
11763;SDS011;5939;56.522;14.950;2022-11-15T01:57:50;10.60;;;6.73;;
11763;SDS011;5939;56.522;14.950;2022-11-15T02:00:19;7.53;;;6.33;;
11763;SDS011;5939;56.522;14.950;2022-11-15T02:02:45;9.50;;;6.70;;
11763;SDS011;5939;56.522;14.950;2022-11-15T02:05:10;9.07;;;6.93;;
11763;SDS011;5939;56.522;14.950;2022-11-15T02:07:36;9.23;;;6.93;;
11763;SDS011;5939;56.522;14.950;2022-11-15T02:10:04;8.93;;;7.10;;
11763;SDS011;5939;56.522;14.950;2022-11-15T02:12:32;9.30;;;6.73;;
11763;SDS011;5939;56.522;14.950;2022-11-15T02:14:58;10.30;;;6.83;;
11763;SDS011;5939;56.522;14.950;2022-11-15T02:20:28;7.73;;;6.53;;
11763;SDS011;5939;56.522;14.950;2022-11-15T02:31:42;7.73;;;6.20;;
11763;SDS011;5939;56.522;14.950;2022-11-15T02:34:29;8.87;;;6.50;;
11763;SDS011;5939;56.522;14.950;2022-11-15T02:37:20;8.83;;;6.93;;
11763;SDS011;5939;56.522;14.950;2022-11-15T02:42:35;9.47;;;6.07;;
11763;SDS011;5939;56.522;14.950;2022-11-15T02:45:27;7.53;;;6.10;;
11763;SDS011;5939;56.522;14.950;2022-11-15T02:47:57;7.07;;;5.93;;
11763;SDS011;5939;56.522;14.950;2022-11-15T02:50:27;7.80;;;6.50;;
11763;SDS011;5939;56.522;14.950;2022-11-15T02:52:55;7.43;;;6.07;;
11763;SDS011;5939;56.522;14.950;2022-11-15T02:55:25;7.23;;;6.27;;
11763;SDS011;5939;56.522;14.950;2022-11-15T03:00:49;7.83;;;6.03;;
11763;SDS011;5939;56.522;14.950;2022-11-15T03:06:20;8.53;;;5.73;;
11763;SDS011;5939;56.522;14.950;2022-11-15T03:11:23;9.90;;;6.63;;
11763;SDS011;5939;56.522;14.950;2022-11-15T03:14:02;8.13;;;6.17;;
11763;SDS011;5939;56.522;14.950;2022-11-15T03:19:49;6.53;;;5.67;;
11763;SDS011;5939;56.522;14.950;2022-11-15T03:22:19;7.57;;;6.70;;
11763;SDS011;5939;56.522;14.950;2022-11-15T03:24:52;8.13;;;6.07;;
11763;SDS011;5939;56.522;14.950;2022-11-15T03:27:27;7.80;;;6.30;;
11763;SDS011;5939;56.522;14.950;2022-11-15T03:29:58;9.00;;;6.70;;
11763;SDS011;5939;56.522;14.950;2022-11-15T03:32:30;8.67;;;6.27;;
11763;SDS011;5939;56.522;14.950;2022-11-15T03:35:06;6.57;;;5.87;;
11763;SDS011;5939;56.522;14.950;2022-11-15T03:37:44;7.33;;;6.10;;
11763;SDS011;5939;56.522;14.950;2022-11-15T03:40:22;6.70;;;5.50;;
11763;SDS011;5939;56.522;14.950;2022-11-15T03:45:43;9.23;;;6.27;;
11763;SDS011;5939;56.522;14.950;2022-11-15T03:48:23;7.40;;;6.07;;
11763;SDS011;5939;56.522;14.950;2022-11-15T03:50:51;8.37;;;6.27;;
11763;SDS011;5939;56.522;14.950;2022-11-15T03:53:18;7.83;;;6.43;;
11763;SDS011;5939;56.522;14.950;2022-11-15T03:55:44;8.10;;;6.67;;
11763;SDS011;5939;56.522;14.950;2022-11-15T03:58:09;8.97;;;6.27;;
11763;SDS011;5939;56.522;14.950;2022-11-15T04:00:35;8.47;;;6.17;;
11763;SDS011;5939;56.522;14.950;2022-11-15T04:03:00;7.60;;;6.17;;
11763;SDS011;5939;56.522;14.950;2022-11-15T04:05:26;8.17;;;5.93;;
11763;SDS011;5939;56.522;14.950;2022-11-15T04:07:52;7.83;;;5.87;;
11763;SDS011;5939;56.522;14.950;2022-11-15T04:10:17;8.77;;;6.03;;
11763;SDS011;5939;56.522;14.950;2022-11-15T04:12:44;7.47;;;6.23;;
11763;SDS011;5939;56.522;14.950;2022-11-15T04:15:13;7.03;;;6.00;;
11763;SDS011;5939;56.522;14.950;2022-11-15T04:17:50;7.90;;;6.00;;
11763;SDS011;5939;56.522;14.950;2022-11-15T04:23:04;10.33;;;6.77;;
11763;SDS011;5939;56.522;14.950;2022-11-15T04:25:52;7.97;;;5.83;;
11763;SDS011;5939;56.522;14.950;2022-11-15T04:28:20;10.53;;;6.87;;
11763;SDS011;5939;56.522;14.950;2022-11-15T04:30:46;7.70;;;6.37;;
11763;SDS011;5939;56.522;14.950;2022-11-15T04:33:11;7.67;;;6.07;;
11763;SDS011;5939;56.522;14.950;2022-11-15T04:35:37;8.53;;;6.20;;
11763;SDS011;5939;56.522;14.950;2022-11-15T04:38:03;8.67;;;6.67;;
11763;SDS011;5939;56.522;14.950;2022-11-15T04:40:30;6.83;;;5.77;;
11763;SDS011;5939;56.522;14.950;2022-11-15T04:42:56;7.67;;;6.10;;
11763;SDS011;5939;56.522;14.950;2022-11-15T04:45:22;6.50;;;5.87;;
11763;SDS011;5939;56.522;14.950;2022-11-15T04:47:48;8.20;;;6.63;;
11763;SDS011;5939;56.522;14.950;2022-11-15T04:50:14;8.30;;;6.60;;
11763;SDS011;5939;56.522;14.950;2022-11-15T04:52:41;8.50;;;6.27;;
11763;SDS011;5939;56.522;14.950;2022-11-15T04:55:09;8.57;;;6.37;;
11763;SDS011;5939;56.522;14.950;2022-11-15T04:57:35;8.43;;;6.60;;
11763;SDS011;5939;56.522;14.950;2022-11-15T05:00:05;7.17;;;6.07;;
11763;SDS011;5939;56.522;14.950;2022-11-15T05:02:33;8.40;;;6.40;;
11763;SDS011;5939;56.522;14.950;2022-11-15T05:05:18;7.20;;;6.33;;
11763;SDS011;5939;56.522;14.950;2022-11-15T05:07:43;8.50;;;6.63;;
11763;SDS011;5939;56.522;14.950;2022-11-15T05:10:09;8.07;;;6.27;;
11763;SDS011;5939;56.522;14.950;2022-11-15T05:12:35;10.00;;;6.33;;
11763;SDS011;5939;56.522;14.950;2022-11-15T05:15:01;8.50;;;6.17;;
11763;SDS011;5939;56.522;14.950;2022-11-15T05:17:27;9.03;;;6.97;;
11763;SDS011;5939;56.522;14.950;2022-11-15T05:19:52;7.80;;;6.03;;
11763;SDS011;5939;56.522;14.950;2022-11-15T05:22:18;8.90;;;6.30;;
11763;SDS011;5939;56.522;14.950;2022-11-15T05:24:44;6.77;;;5.93;;
11763;SDS011;5939;56.522;14.950;2022-11-15T05:27:10;10.23;;;6.00;;
11763;SDS011;5939;56.522;14.950;2022-11-15T05:29:35;8.77;;;6.60;;
11763;SDS011;5939;56.522;14.950;2022-11-15T05:32:02;8.80;;;6.30;;
11763;SDS011;5939;56.522;14.950;2022-11-15T05:34:30;7.57;;;6.00;;
11763;SDS011;5939;56.522;14.950;2022-11-15T05:36:55;8.27;;;6.30;;
11763;SDS011;5939;56.522;14.950;2022-11-15T05:39:21;7.27;;;6.00;;
11763;SDS011;5939;56.522;14.950;2022-11-15T05:41:55;8.20;;;6.17;;
11763;SDS011;5939;56.522;14.950;2022-11-15T05:44:26;7.40;;;6.00;;
11763;SDS011;5939;56.522;14.950;2022-11-15T05:46:52;7.53;;;6.47;;
11763;SDS011;5939;56.522;14.950;2022-11-15T05:49:21;8.93;;;6.40;;
11763;SDS011;5939;56.522;14.950;2022-11-15T05:51:51;7.63;;;6.10;;
11763;SDS011;5939;56.522;14.950;2022-11-15T05:54:18;9.17;;;6.50;;
11763;SDS011;5939;56.522;14.950;2022-11-15T05:56:46;8.80;;;6.07;;
11763;SDS011;5939;56.522;14.950;2022-11-15T05:59:11;9.83;;;7.10;;
11763;SDS011;5939;56.522;14.950;2022-11-15T06:01:37;7.40;;;5.40;;
11763;SDS011;5939;56.522;14.950;2022-11-15T06:04:04;8.30;;;6.00;;
11763;SDS011;5939;56.522;14.950;2022-11-15T06:06:30;10.27;;;7.07;;
11763;SDS011;5939;56.522;14.950;2022-11-15T06:08:55;6.90;;;5.83;;
11763;SDS011;5939;56.522;14.950;2022-11-15T06:11:21;9.10;;;5.83;;
11763;SDS011;5939;56.522;14.950;2022-11-15T06:13:47;7.13;;;6.17;;
11763;SDS011;5939;56.522;14.950;2022-11-15T06:16:12;9.53;;;6.30;;
11763;SDS011;5939;56.522;14.950;2022-11-15T06:18:38;8.83;;;6.17;;
11763;SDS011;5939;56.522;14.950;2022-11-15T06:21:04;10.10;;;6.63;;
11763;SDS011;5939;56.522;14.950;2022-11-15T06:23:33;8.53;;;6.13;;
11763;SDS011;5939;56.522;14.950;2022-11-15T06:26:00;9.60;;;6.23;;
11763;SDS011;5939;56.522;14.950;2022-11-15T06:28:30;7.83;;;6.17;;
11763;SDS011;5939;56.522;14.950;2022-11-15T06:31:07;9.00;;;6.30;;
11763;SDS011;5939;56.522;14.950;2022-11-15T06:33:34;8.23;;;6.17;;
11763;SDS011;5939;56.522;14.950;2022-11-15T06:36:03;7.90;;;6.40;;
11763;SDS011;5939;56.522;14.950;2022-11-15T06:38:30;6.87;;;6.10;;
11763;SDS011;5939;56.522;14.950;2022-11-15T06:41:02;9.30;;;6.00;;
11763;SDS011;5939;56.522;14.950;2022-11-15T06:43:33;8.70;;;6.40;;
11763;SDS011;5939;56.522;14.950;2022-11-15T06:46:00;8.83;;;6.60;;
11763;SDS011;5939;56.522;14.950;2022-11-15T06:48:27;6.97;;;6.00;;
11763;SDS011;5939;56.522;14.950;2022-11-15T06:50:53;8.10;;;6.13;;
11763;SDS011;5939;56.522;14.950;2022-11-15T06:53:20;7.40;;;5.80;;
11763;SDS011;5939;56.522;14.950;2022-11-15T06:55:46;8.33;;;5.93;;
11763;SDS011;5939;56.522;14.950;2022-11-15T06:58:11;8.07;;;6.13;;
11763;SDS011;5939;56.522;14.950;2022-11-15T07:00:37;11.33;;;6.03;;
11763;SDS011;5939;56.522;14.950;2022-11-15T07:03:03;7.93;;;5.90;;
11763;SDS011;5939;56.522;14.950;2022-11-15T07:05:29;7.67;;;5.90;;
11763;SDS011;5939;56.522;14.950;2022-11-15T07:07:55;8.03;;;5.50;;
11763;SDS011;5939;56.522;14.950;2022-11-15T07:10:22;8.00;;;5.70;;
11763;SDS011;5939;56.522;14.950;2022-11-15T07:12:49;7.33;;;5.87;;
11763;SDS011;5939;56.522;14.950;2022-11-15T07:15:19;7.07;;;5.63;;
11763;SDS011;5939;56.522;14.950;2022-11-15T07:17:46;8.00;;;5.90;;
11763;SDS011;5939;56.522;14.950;2022-11-15T07:20:12;8.50;;;5.87;;
11763;SDS011;5939;56.522;14.950;2022-11-15T07:22:38;6.90;;;5.27;;
11763;SDS011;5939;56.522;14.950;2022-11-15T07:25:05;6.17;;;5.00;;
11763;SDS011;5939;56.522;14.950;2022-11-15T07:27:30;7.93;;;5.60;;
11763;SDS011;5939;56.522;14.950;2022-11-15T07:29:56;7.23;;;5.87;;
11763;SDS011;5939;56.522;14.950;2022-11-15T07:32:22;6.73;;;5.43;;
11763;SDS011;5939;56.522;14.950;2022-11-15T07:34:47;7.43;;;5.50;;
11763;SDS011;5939;56.522;14.950;2022-11-15T07:37:13;6.53;;;5.50;;
11763;SDS011;5939;56.522;14.950;2022-11-15T07:39:38;7.40;;;5.90;;
11763;SDS011;5939;56.522;14.950;2022-11-15T07:42:04;7.23;;;5.60;;
11763;SDS011;5939;56.522;14.950;2022-11-15T07:44:49;7.50;;;5.47;;
11763;SDS011;5939;56.522;14.950;2022-11-15T07:47:14;7.63;;;5.37;;
11763;SDS011;5939;56.522;14.950;2022-11-15T07:49:40;6.57;;;5.20;;
11763;SDS011;5939;56.522;14.950;2022-11-15T07:52:06;6.33;;;5.43;;
11763;SDS011;5939;56.522;14.950;2022-11-15T07:54:31;7.03;;;5.47;;
11763;SDS011;5939;56.522;14.950;2022-11-15T07:56:57;8.07;;;5.13;;
11763;SDS011;5939;56.522;14.950;2022-11-15T07:59:22;6.30;;;5.33;;
11763;SDS011;5939;56.522;14.950;2022-11-15T08:01:48;6.83;;;5.43;;
11763;SDS011;5939;56.522;14.950;2022-11-15T08:04:14;6.97;;;5.57;;
11763;SDS011;5939;56.522;14.950;2022-11-15T08:06:40;6.10;;;5.10;;
11763;SDS011;5939;56.522;14.950;2022-11-15T08:09:05;8.13;;;5.57;;
11763;SDS011;5939;56.522;14.950;2022-11-15T08:11:31;6.50;;;5.27;;
11763;SDS011;5939;56.522;14.950;2022-11-15T08:13:57;7.13;;;5.13;;
11763;SDS011;5939;56.522;14.950;2022-11-15T08:16:23;6.63;;;5.40;;
11763;SDS011;5939;56.522;14.950;2022-11-15T08:18:48;8.23;;;5.53;;
11763;SDS011;5939;56.522;14.950;2022-11-15T08:21:14;8.17;;;5.73;;
11763;SDS011;5939;56.522;14.950;2022-11-15T08:23:45;8.00;;;5.77;;
11763;SDS011;5939;56.522;14.950;2022-11-15T08:26:10;7.30;;;5.13;;
11763;SDS011;5939;56.522;14.950;2022-11-15T08:28:36;11.20;;;5.60;;
11763;SDS011;5939;56.522;14.950;2022-11-15T08:31:02;9.47;;;6.10;;
11763;SDS011;5939;56.522;14.950;2022-11-15T08:33:29;7.60;;;6.13;;
11763;SDS011;5939;56.522;14.950;2022-11-15T08:35:59;8.73;;;5.67;;
11763;SDS011;5939;56.522;14.950;2022-11-15T08:38:25;7.13;;;5.40;;
11763;SDS011;5939;56.522;14.950;2022-11-15T08:40:53;6.43;;;5.50;;
11763;SDS011;5939;56.522;14.950;2022-11-15T08:43:26;7.57;;;5.33;;
11763;SDS011;5939;56.522;14.950;2022-11-15T08:45:51;6.87;;;5.47;;
11763;SDS011;5939;56.522;14.950;2022-11-15T08:48:21;7.97;;;5.17;;
11763;SDS011;5939;56.522;14.950;2022-11-15T08:50:46;9.83;;;5.60;;
11763;SDS011;5939;56.522;14.950;2022-11-15T08:53:12;7.50;;;5.60;;
11763;SDS011;5939;56.522;14.950;2022-11-15T08:55:38;8.03;;;5.43;;
11763;SDS011;5939;56.522;14.950;2022-11-15T08:58:04;7.00;;;5.77;;
11763;SDS011;5939;56.522;14.950;2022-11-15T09:00:30;6.80;;;5.33;;
11763;SDS011;5939;56.522;14.950;2022-11-15T09:02:56;6.20;;;4.63;;
11763;SDS011;5939;56.522;14.950;2022-11-15T09:05:22;8.40;;;5.20;;
11763;SDS011;5939;56.522;14.950;2022-11-15T09:07:52;6.87;;;4.73;;
11763;SDS011;5939;56.522;14.950;2022-11-15T09:10:18;9.67;;;5.60;;
11763;SDS011;5939;56.522;14.950;2022-11-15T09:12:43;6.00;;;4.87;;
11763;SDS011;5939;56.522;14.950;2022-11-15T09:15:09;7.13;;;5.07;;
11763;SDS011;5939;56.522;14.950;2022-11-15T09:17:35;6.13;;;4.97;;
11763;SDS011;5939;56.522;14.950;2022-11-15T09:20:00;5.83;;;4.50;;
11763;SDS011;5939;56.522;14.950;2022-11-15T09:22:26;7.87;;;5.07;;
11763;SDS011;5939;56.522;14.950;2022-11-15T09:24:51;6.23;;;4.73;;
11763;SDS011;5939;56.522;14.950;2022-11-15T09:27:17;7.53;;;4.90;;
11763;SDS011;5939;56.522;14.950;2022-11-15T09:29:43;5.77;;;4.70;;
11763;SDS011;5939;56.522;14.950;2022-11-15T09:32:08;6.23;;;4.60;;
11763;SDS011;5939;56.522;14.950;2022-11-15T09:34:34;6.20;;;4.90;;
11763;SDS011;5939;56.522;14.950;2022-11-15T09:37:00;9.97;;;5.43;;
11763;SDS011;5939;56.522;14.950;2022-11-15T09:39:25;6.27;;;4.53;;
11763;SDS011;5939;56.522;14.950;2022-11-15T09:41:58;7.47;;;5.00;;
11763;SDS011;5939;56.522;14.950;2022-11-15T09:49:56;6.37;;;4.73;;
11763;SDS011;5939;56.522;14.950;2022-11-15T09:52:25;5.57;;;4.60;;
11763;SDS011;5939;56.522;14.950;2022-11-15T09:54:52;5.87;;;4.37;;
11763;SDS011;5939;56.522;14.950;2022-11-15T09:57:24;7.37;;;4.83;;
11763;SDS011;5939;56.522;14.950;2022-11-15T10:00:20;6.10;;;4.40;;
11763;SDS011;5939;56.522;14.950;2022-11-15T10:02:57;6.80;;;4.80;;
11763;SDS011;5939;56.522;14.950;2022-11-15T10:05:23;6.63;;;4.60;;
11763;SDS011;5939;56.522;14.950;2022-11-15T10:08:10;5.30;;;4.50;;
11763;SDS011;5939;56.522;14.950;2022-11-15T10:13:25;7.70;;;5.10;;
11763;SDS011;5939;56.522;14.950;2022-11-15T10:15:54;5.00;;;4.13;;
11763;SDS011;5939;56.522;14.950;2022-11-15T10:18:33;5.23;;;4.43;;
11763;SDS011;5939;56.522;14.950;2022-11-15T10:21:15;6.30;;;4.60;;
11763;SDS011;5939;56.522;14.950;2022-11-15T10:23:43;5.93;;;4.30;;
11763;SDS011;5939;56.522;14.950;2022-11-15T10:26:11;6.47;;;4.43;;
11763;SDS011;5939;56.522;14.950;2022-11-15T10:28:41;4.63;;;3.60;;
11763;SDS011;5939;56.522;14.950;2022-11-15T10:31:28;6.37;;;4.43;;
11763;SDS011;5939;56.522;14.950;2022-11-15T10:34:10;4.90;;;3.93;;
11763;SDS011;5939;56.522;14.950;2022-11-15T10:36:59;5.63;;;4.40;;
11763;SDS011;5939;56.522;14.950;2022-11-15T10:39:27;4.90;;;4.00;;
11763;SDS011;5939;56.522;14.950;2022-11-15T10:41:52;6.03;;;4.50;;
11763;SDS011;5939;56.522;14.950;2022-11-15T10:44:20;4.60;;;4.10;;
11763;SDS011;5939;56.522;14.950;2022-11-15T10:49:21;5.03;;;4.20;;
11763;SDS011;5939;56.522;14.950;2022-11-15T10:51:53;6.07;;;3.90;;
11763;SDS011;5939;56.522;14.950;2022-11-15T10:54:26;6.33;;;3.90;;
11763;SDS011;5939;56.522;14.950;2022-11-15T10:56:59;7.97;;;4.30;;
11763;SDS011;5939;56.522;14.950;2022-11-15T10:59:31;5.40;;;4.10;;
11763;SDS011;5939;56.522;14.950;2022-11-15T11:02:00;6.73;;;4.27;;
11763;SDS011;5939;56.522;14.950;2022-11-15T11:04:25;5.20;;;3.53;;
11763;SDS011;5939;56.522;14.950;2022-11-15T11:06:58;5.27;;;3.77;;
11763;SDS011;5939;56.522;14.950;2022-11-15T11:09:37;5.70;;;3.90;;
11763;SDS011;5939;56.522;14.950;2022-11-15T11:12:09;5.73;;;3.63;;
11763;SDS011;5939;56.522;14.950;2022-11-15T11:14:37;4.17;;;3.47;;
11763;SDS011;5939;56.522;14.950;2022-11-15T11:19:55;6.23;;;3.37;;
11763;SDS011;5939;56.522;14.950;2022-11-15T11:25:24;6.20;;;3.13;;
11763;SDS011;5939;56.522;14.950;2022-11-15T11:36:11;5.43;;;3.20;;
11763;SDS011;5939;56.522;14.950;2022-11-15T11:38:51;4.57;;;3.20;;
11763;SDS011;5939;56.522;14.950;2022-11-15T11:41:50;4.20;;;3.00;;
11763;SDS011;5939;56.522;14.950;2022-11-15T11:44:27;3.93;;;3.30;;
11763;SDS011;5939;56.522;14.950;2022-11-15T11:47:09;3.50;;;2.80;;
11763;SDS011;5939;56.522;14.950;2022-11-15T11:49:48;3.43;;;3.00;;
11763;SDS011;5939;56.522;14.950;2022-11-15T11:52:31;3.30;;;2.60;;
11763;SDS011;5939;56.522;14.950;2022-11-15T11:55:14;3.60;;;2.80;;
11763;SDS011;5939;56.522;14.950;2022-11-15T12:00:20;4.40;;;2.90;;
11763;SDS011;5939;56.522;14.950;2022-11-15T12:13:48;3.97;;;2.60;;
11763;SDS011;5939;56.522;14.950;2022-11-15T12:16:28;3.37;;;2.67;;
11763;SDS011;5939;56.522;14.950;2022-11-15T12:18:56;3.87;;;2.77;;
11763;SDS011;5939;56.522;14.950;2022-11-15T12:26:52;2.93;;;2.20;;
11763;SDS011;5939;56.522;14.950;2022-11-15T12:29:31;3.57;;;2.70;;
11763;SDS011;5939;56.522;14.950;2022-11-15T12:35:23;3.07;;;2.40;;
11763;SDS011;5939;56.522;14.950;2022-11-15T12:38:00;3.90;;;2.53;;
11763;SDS011;5939;56.522;14.950;2022-11-15T12:40:36;3.20;;;2.50;;
11763;SDS011;5939;56.522;14.950;2022-11-15T12:45:38;4.30;;;2.70;;
11763;SDS011;5939;56.522;14.950;2022-11-15T13:01:07;4.13;;;2.20;;
11763;SDS011;5939;56.522;14.950;2022-11-15T13:03:33;3.87;;;2.57;;
11763;SDS011;5939;56.522;14.950;2022-11-15T13:06:00;3.07;;;2.57;;
11763;SDS011;5939;56.522;14.950;2022-11-15T13:08:38;2.50;;;2.23;;
11763;SDS011;5939;56.522;14.950;2022-11-15T13:11:41;2.87;;;2.50;;
11763;SDS011;5939;56.522;14.950;2022-11-15T13:17:20;2.77;;;2.37;;
11763;SDS011;5939;56.522;14.950;2022-11-15T13:19:58;2.63;;;2.03;;
11763;SDS011;5939;56.522;14.950;2022-11-15T13:28:01;4.60;;;2.30;;
11763;SDS011;5939;56.522;14.950;2022-11-15T13:30:40;4.97;;;2.20;;
11763;SDS011;5939;56.522;14.950;2022-11-15T13:33:55;3.00;;;2.10;;
11763;SDS011;5939;56.522;14.950;2022-11-15T13:36:07;2.57;;;1.90;;
11763;SDS011;5939;56.522;14.950;2022-11-15T13:38:40;2.60;;;1.87;;
11763;SDS011;5939;56.522;14.950;2022-11-15T13:44:02;2.10;;;1.90;;
11763;SDS011;5939;56.522;14.950;2022-11-15T13:46:29;2.67;;;1.87;;
11763;SDS011;5939;56.522;14.950;2022-11-15T13:48:58;2.40;;;1.90;;
11763;SDS011;5939;56.522;14.950;2022-11-15T13:56:48;2.53;;;2.10;;
11763;SDS011;5939;56.522;14.950;2022-11-15T14:01:49;2.93;;;2.10;;
11763;SDS011;5939;56.522;14.950;2022-11-15T14:04:18;5.43;;;1.93;;
11763;SDS011;5939;56.522;14.950;2022-11-15T14:06:47;2.50;;;1.70;;
11763;SDS011;5939;56.522;14.950;2022-11-15T14:17:55;2.63;;;1.67;;
11763;SDS011;5939;56.522;14.950;2022-11-15T14:22:56;1.80;;;1.60;;
11763;SDS011;5939;56.522;14.950;2022-11-15T14:25:24;1.40;;;1.30;;
11763;SDS011;5939;56.522;14.950;2022-11-15T14:30:48;1.53;;;1.40;;
11763;SDS011;5939;56.522;14.950;2022-11-15T14:35:45;1.83;;;1.40;;
11763;SDS011;5939;56.522;14.950;2022-11-15T14:38:10;2.37;;;1.30;;
11763;SDS011;5939;56.522;14.950;2022-11-15T14:40:36;2.37;;;1.23;;
11763;SDS011;5939;56.522;14.950;2022-11-15T14:43:02;2.03;;;1.10;;
11763;SDS011;5939;56.522;14.950;2022-11-15T14:45:27;1.83;;;1.13;;
11763;SDS011;5939;56.522;14.950;2022-11-15T14:47:53;1.43;;;0.90;;
11763;SDS011;5939;56.522;14.950;2022-11-15T14:50:19;1.93;;;1.10;;
11763;SDS011;5939;56.522;14.950;2022-11-15T14:52:46;1.27;;;1.10;;
11763;SDS011;5939;56.522;14.950;2022-11-15T14:55:22;1.80;;;0.90;;
11763;SDS011;5939;56.522;14.950;2022-11-15T14:57:51;2.63;;;1.10;;
11763;SDS011;5939;56.522;14.950;2022-11-15T15:00:17;1.07;;;0.97;;
11763;SDS011;5939;56.522;14.950;2022-11-15T15:02:44;0.90;;;0.90;;
11763;SDS011;5939;56.522;14.950;2022-11-15T15:05:19;1.27;;;0.90;;
11763;SDS011;5939;56.522;14.950;2022-11-15T15:07:46;1.20;;;1.10;;
11763;SDS011;5939;56.522;14.950;2022-11-15T15:10:13;0.70;;;0.70;;
11763;SDS011;5939;56.522;14.950;2022-11-15T15:12:40;0.93;;;0.83;;
11763;SDS011;5939;56.522;14.950;2022-11-15T15:15:09;1.00;;;0.80;;
11763;SDS011;5939;56.522;14.950;2022-11-15T15:17:39;1.07;;;0.93;;
11763;SDS011;5939;56.522;14.950;2022-11-15T15:20:04;0.90;;;0.90;;
11763;SDS011;5939;56.522;14.950;2022-11-15T15:22:30;0.93;;;0.80;;
11763;SDS011;5939;56.522;14.950;2022-11-15T15:24:56;1.23;;;0.70;;
11763;SDS011;5939;56.522;14.950;2022-11-15T15:27:22;0.80;;;0.80;;
11763;SDS011;5939;56.522;14.950;2022-11-15T15:29:47;0.80;;;0.80;;
11763;SDS011;5939;56.522;14.950;2022-11-15T15:32:13;1.53;;;0.70;;
11763;SDS011;5939;56.522;14.950;2022-11-15T15:34:39;0.80;;;0.80;;
11763;SDS011;5939;56.522;14.950;2022-11-15T15:39:52;0.70;;;0.70;;
11763;SDS011;5939;56.522;14.950;2022-11-15T15:42:19;0.80;;;0.80;;
11763;SDS011;5939;56.522;14.950;2022-11-15T15:44:46;1.80;;;0.73;;
11763;SDS011;5939;56.522;14.950;2022-11-15T15:47:18;0.80;;;0.70;;
11763;SDS011;5939;56.522;14.950;2022-11-15T15:49:48;0.90;;;0.70;;
11763;SDS011;5939;56.522;14.950;2022-11-15T15:52:14;1.23;;;0.87;;
11763;SDS011;5939;56.522;14.950;2022-11-15T15:54:40;0.87;;;0.80;;
11763;SDS011;5939;56.522;14.950;2022-11-15T15:57:06;0.97;;;0.60;;
11763;SDS011;5939;56.522;14.950;2022-11-15T15:59:35;1.10;;;0.80;;
11763;SDS011;5939;56.522;14.950;2022-11-15T16:02:01;0.83;;;0.73;;
11763;SDS011;5939;56.522;14.950;2022-11-15T16:04:27;1.23;;;0.93;;
11763;SDS011;5939;56.522;14.950;2022-11-15T16:06:57;2.07;;;0.70;;
11763;SDS011;5939;56.522;14.950;2022-11-15T16:09:24;1.20;;;0.77;;
11763;SDS011;5939;56.522;14.950;2022-11-15T16:12:09;2.50;;;1.10;;
11763;SDS011;5939;56.522;14.950;2022-11-15T16:14:34;0.97;;;0.80;;
11763;SDS011;5939;56.522;14.950;2022-11-15T16:17:00;0.90;;;0.60;;
11763;SDS011;5939;56.522;14.950;2022-11-15T16:19:26;1.00;;;0.90;;
11763;SDS011;5939;56.522;14.950;2022-11-15T16:21:52;1.57;;;0.80;;
11763;SDS011;5939;56.522;14.950;2022-11-15T16:24:18;1.23;;;0.83;;
11763;SDS011;5939;56.522;14.950;2022-11-15T16:26:44;0.80;;;0.70;;
11763;SDS011;5939;56.522;14.950;2022-11-15T16:29:11;2.00;;;1.20;;
11763;SDS011;5939;56.522;14.950;2022-11-15T16:31:37;1.07;;;0.77;;
11763;SDS011;5939;56.522;14.950;2022-11-15T16:34:02;1.07;;;0.83;;
11763;SDS011;5939;56.522;14.950;2022-11-15T16:36:29;1.00;;;0.90;;
11763;SDS011;5939;56.522;14.950;2022-11-15T16:38:57;0.90;;;0.80;;
11763;SDS011;5939;56.522;14.950;2022-11-15T16:41:23;0.70;;;0.70;;
11763;SDS011;5939;56.522;14.950;2022-11-15T16:43:49;1.97;;;0.90;;
11763;SDS011;5939;56.522;14.950;2022-11-15T16:46:19;1.17;;;0.83;;
11763;SDS011;5939;56.522;14.950;2022-11-15T16:48:49;1.93;;;1.10;;
11763;SDS011;5939;56.522;14.950;2022-11-15T16:51:16;2.63;;;1.20;;
11763;SDS011;5939;56.522;14.950;2022-11-15T16:53:42;1.80;;;1.07;;
11763;SDS011;5939;56.522;14.950;2022-11-15T16:56:24;1.33;;;0.90;;
11763;SDS011;5939;56.522;14.950;2022-11-15T16:58:54;2.17;;;1.00;;
11763;SDS011;5939;56.522;14.950;2022-11-15T17:01:32;2.57;;;0.90;;
11763;SDS011;5939;56.522;14.950;2022-11-15T17:03:59;2.00;;;1.20;;
11763;SDS011;5939;56.522;14.950;2022-11-15T17:06:37;2.07;;;1.00;;
11763;SDS011;5939;56.522;14.950;2022-11-15T17:09:04;1.03;;;0.93;;
11763;SDS011;5939;56.522;14.950;2022-11-15T17:11:30;1.07;;;0.90;;
11763;SDS011;5939;56.522;14.950;2022-11-15T17:13:56;2.20;;;1.00;;
11763;SDS011;5939;56.522;14.950;2022-11-15T17:16:23;2.33;;;1.00;;